Time;durP1;ratioP1;P1;durP2;ratioP2;P2;SDS_P1;SDS_P2;PMS_P1;PMS_P2;Temp;Humidity;BMP_temperature;BMP_pressure;BME280_temperature;BME280_humidity;BME280_pressure;Samples;Min_cycle;Max_cycle;Signal;HPM_P1;HPM_P2
2023/06/20 00:00:49;;;;;;;9.77;7.00;;;25.80;77.70;;;;;;5015155;28;20084;-70
2023/06/20 00:03:16;;;;;;;11.95;7.53;;;25.80;77.60;;;;;;5015071;28;20030;-70
2023/06/20 00:05:42;;;;;;;12.07;7.55;;;25.80;77.50;;;;;;5013899;28;20084;-70
2023/06/20 00:08:08;;;;;;;11.38;8.05;;;25.80;77.60;;;;;;5014958;28;20022;-70
2023/06/20 00:10:33;;;;;;;12.93;8.15;;;25.70;77.60;;;;;;5014763;28;20061;-70
2023/06/20 00:13:02;;;;;;;8.80;7.90;;;25.70;77.60;;;;;;5014792;28;20475;-69
2023/06/20 00:15:28;;;;;;;9.00;7.93;;;25.70;77.60;;;;;;5014880;28;20037;-70
2023/06/20 00:17:54;;;;;;;13.82;8.68;;;25.70;78.20;;;;;;5014664;28;20112;-70
2023/06/20 00:20:20;;;;;;;10.80;8.65;;;25.70;77.60;;;;;;5014746;28;20057;-70
2023/06/20 00:22:45;;;;;;;8.80;7.82;;;25.70;77.60;;;;;;5014776;28;20080;-70
2023/06/20 00:25:11;;;;;;;9.43;8.43;;;25.70;77.60;;;;;;5014123;28;20558;-70
2023/06/20 00:27:36;;;;;;;9.05;8.07;;;25.70;78.10;;;;;;5014684;28;20029;-70
2023/06/20 00:30:02;;;;;;;12.98;8.57;;;25.60;78.50;;;;;;5014502;28;20485;-70
2023/06/20 00:32:28;;;;;;;13.95;8.38;;;25.70;78.80;;;;;;5014447;28;20068;-70
2023/06/20 00:34:58;;;;;;;10.07;8.18;;;25.70;78.80;;;;;;5014354;28;20026;-70
2023/06/20 00:37:24;;;;;;;9.80;7.85;;;25.60;79.20;;;;;;5014447;28;20467;-70
2023/06/20 00:39:50;;;;;;;10.05;8.85;;;25.60;79.70;;;;;;5013929;28;20113;-70
2023/06/20 00:42:23;;;;;;;11.55;8.23;;;25.60;79.80;;;;;;5014394;28;20098;-70
2023/06/20 00:44:49;;;;;;;11.27;8.75;;;25.60;80.20;;;;;;5013980;28;20092;-70
2023/06/20 00:47:19;;;;;;;13.52;9.82;;;25.60;80.10;;;;;;5014330;28;20463;-70
2023/06/20 00:49:46;;;;;;;12.65;8.43;;;25.60;80.10;;;;;;5014211;28;20113;-70
2023/06/20 00:52:19;;;;;;;12.63;8.48;;;25.60;80.70;;;;;;5014076;28;20018;-70
2023/06/20 00:54:47;;;;;;;8.98;8.07;;;25.60;80.80;;;;;;5013848;28;20030;-70
2023/06/20 00:57:14;;;;;;;11.57;9.07;;;25.50;81.40;;;;;;5014159;28;20026;-70
2023/06/20 00:59:44;;;;;;;14.00;9.38;;;25.50;80.90;;;;;;5013986;28;20479;-70
2023/06/20 01:02:10;;;;;;;14.45;9.27;;;25.50;80.50;;;;;;4996552;28;20076;-70
2023/06/20 01:04:39;;;;;;;12.30;10.75;;;25.50;80.70;;;;;;5013815;28;20467;-70
2023/06/20 01:07:33;;;;;;;12.18;9.18;;;25.50;80.60;;;;;;5013593;28;20026;-70
2023/06/20 01:10:21;;;;;;;14.68;10.02;;;25.50;81.00;;;;;;5013466;28;20032;-70
2023/06/20 01:13:25;;;;;;;13.35;9.95;;;25.50;80.60;;;;;;5013937;28;20107;-70
2023/06/20 01:16:09;;;;;;;11.20;9.98;;;25.50;81.00;;;;;;5012210;28;20036;-70
2023/06/20 01:18:59;;;;;;;12.27;9.60;;;25.40;80.90;;;;;;5033444;28;20104;-70
2023/06/20 01:21:34;;;;;;;10.65;8.93;;;25.40;81.10;;;;;;5032497;28;20020;-70
2023/06/20 01:24:09;;;;;;;12.45;9.73;;;25.40;80.70;;;;;;5033527;28;20459;-70
2023/06/20 01:26:47;;;;;;;16.38;10.02;;;25.40;80.60;;;;;;5033120;28;20029;-70
2023/06/20 01:29:18;;;;;;;14.00;9.88;;;25.40;80.60;;;;;;5015797;28;20566;-70
2023/06/20 01:31:55;;;;;;;11.57;10.18;;;25.40;80.70;;;;;;5033227;28;20536;-70
2023/06/20 01:34:29;;;;;;;11.77;10.45;;;25.30;80.70;;;;;;5033269;28;20104;-70
2023/06/20 01:36:59;;;;;;;12.40;10.85;;;25.40;80.90;;;;;;5032742;28;20032;-70
2023/06/20 01:39:29;;;;;;;13.40;10.38;;;25.30;80.80;;;;;;5033269;28;20083;-70
2023/06/20 01:41:59;;;;;;;14.50;9.63;;;25.30;81.10;;;;;;5033187;28;20083;-70
2023/06/20 01:44:27;;;;;;;11.40;9.88;;;25.30;81.20;;;;;;5033265;28;20063;-70
2023/06/20 01:46:56;;;;;;;14.20;10.35;;;25.30;81.20;;;;;;5032815;28;20467;-70
2023/06/20 01:49:24;;;;;;;11.70;10.10;;;25.30;81.40;;;;;;5033187;28;20041;-70
2023/06/20 01:51:55;;;;;;;11.45;9.73;;;25.30;81.40;;;;;;5032634;28;20049;-70
2023/06/20 01:54:27;;;;;;;13.27;10.48;;;25.30;81.50;;;;;;5033070;28;20067;-70
2023/06/20 01:56:54;;;;;;;15.07;10.00;;;25.30;81.40;;;;;;5032887;28;20024;-70
2023/06/20 01:59:20;;;;;;;14.38;10.43;;;25.30;81.20;;;;;;5033177;28;20072;-71
2023/06/20 02:01:48;;;;;;;13.15;10.30;;;25.30;81.30;;;;;;5032932;28;20470;-70
2023/06/20 02:04:16;;;;;;;13.23;10.68;;;25.30;81.40;;;;;;5032888;28;20073;-70
2023/06/20 02:06:43;;;;;;;13.85;10.43;;;25.20;81.50;;;;;;5032566;28;20030;-70
2023/06/20 02:09:10;;;;;;;11.48;10.05;;;25.20;81.80;;;;;;5032796;28;20429;-70
2023/06/20 02:11:36;;;;;;;15.70;10.10;;;25.20;81.90;;;;;;5032977;28;20068;-70
2023/06/20 02:14:03;;;;;;;13.00;10.55;;;25.20;82.10;;;;;;5033036;28;20021;-70
2023/06/20 02:16:30;;;;;;;16.50;10.52;;;25.20;82.30;;;;;;5032710;28;20030;-70
2023/06/20 02:18:56;;;;;;;13.25;11.00;;;25.20;82.40;;;;;;5032889;28;20061;-70
2023/06/20 02:21:26;;;;;;;13.75;11.07;;;25.10;82.30;;;;;;5032577;28;20079;-70
2023/06/20 02:23:53;;;;;;;12.30;11.10;;;25.10;81.80;;;;;;5032865;28;20022;-70
2023/06/20 02:26:21;;;;;;;13.55;10.65;;;25.10;81.50;;;;;;5032568;28;20033;-70
2023/06/20 02:28:49;;;;;;;13.63;11.23;;;25.10;81.50;;;;;;5034855;28;20024;-70
2023/06/20 02:31:21;;;;;;;12.85;11.32;;;25.10;81.40;;;;;;5036466;28;20489;-69
2023/06/20 02:33:50;;;;;;;15.10;11.30;;;25.10;81.20;;;;;;5036519;28;20024;-70
2023/06/20 02:36:17;;;;;;;13.27;11.88;;;25.10;81.30;;;;;;5036396;28;20053;-70
2023/06/20 02:38:43;;;;;;;18.17;12.00;;;25.10;81.30;;;;;;5036608;28;20022;-70
2023/06/20 02:41:09;;;;;;;15.15;11.52;;;25.10;81.20;;;;;;5036356;28;20033;-70
2023/06/20 02:43:34;;;;;;;14.80;13.20;;;25.00;81.10;;;;;;5036250;28;20021;-70
2023/06/20 02:46:24;;;;;;;13.38;11.63;;;25.00;81.00;;;;;;5036167;28;20036;-70
2023/06/20 02:49:07;;;;;;;13.48;11.77;;;25.00;81.00;;;;;;5036074;28;20518;-70
2023/06/20 02:52:05;;;;;;;15.48;12.50;;;25.00;80.90;;;;;;5036116;28;20039;-70
2023/06/20 02:55:02;;;;;;;14.43;12.20;;;25.00;80.80;;;;;;5036329;28;20104;-71
2023/06/20 02:57:29;;;;;;;16.25;12.15;;;24.90;80.80;;;;;;5031128;28;20033;-70
2023/06/20 03:00:10;;;;;;;17.40;12.40;;;25.00;81.60;;;;;;5036136;28;20151;-70
2023/06/20 03:02:46;;;;;;;14.10;12.63;;;24.90;81.10;;;;;;5035867;28;20036;-70
2023/06/20 03:05:14;;;;;;;13.70;12.27;;;24.90;81.10;;;;;;5035805;28;20025;-70
2023/06/20 03:07:41;;;;;;;13.27;11.93;;;24.90;81.10;;;;;;5035899;28;20062;-70
2023/06/20 03:10:08;;;;;;;14.82;12.45;;;24.90;81.20;;;;;;5035675;28;20038;-70
2023/06/20 03:12:34;;;;;;;14.40;11.38;;;24.90;81.30;;;;;;5035905;28;20478;-70
2023/06/20 03:15:00;;;;;;;14.43;12.13;;;24.90;81.30;;;;;;5035615;28;20021;-70
2023/06/20 03:17:25;;;;;;;16.33;11.82;;;24.80;81.20;;;;;;5035424;28;20506;-70
2023/06/20 03:19:51;;;;;;;13.95;11.57;;;24.80;81.20;;;;;;5035938;28;20014;-70
2023/06/20 03:22:17;;;;;;;15.00;11.57;;;24.80;81.10;;;;;;5035539;28;20445;-70
2023/06/20 03:24:42;;;;;;;14.80;10.90;;;24.80;81.20;;;;;;5035552;28;20028;-70
2023/06/20 03:27:08;;;;;;;13.68;11.93;;;24.80;81.20;;;;;;5035439;28;20104;-70
2023/06/20 03:29:33;;;;;;;14.15;11.90;;;24.90;81.30;;;;;;5035565;28;20075;-70
2023/06/20 03:31:59;;;;;;;16.65;12.18;;;24.80;81.30;;;;;;5035201;28;20524;-70
2023/06/20 03:34:25;;;;;;;19.02;12.05;;;24.80;81.50;;;;;;5035419;28;20083;-70
2023/06/20 03:36:50;;;;;;;14.38;11.50;;;24.80;81.60;;;;;;5035400;28;20097;-70
2023/06/20 03:39:16;;;;;;;13.40;10.57;;;24.80;81.70;;;;;;5035127;28;20039;-70
2023/06/20 03:41:41;;;;;;;14.13;10.73;;;24.80;81.90;;;;;;5017652;28;20079;-70
2023/06/20 03:44:07;;;;;;;16.35;11.50;;;24.80;81.90;;;;;;5035027;28;20079;-70
2023/06/20 03:46:33;;;;;;;14.93;11.40;;;24.70;81.90;;;;;;5035038;28;20115;-70
2023/06/20 03:48:58;;;;;;;14.15;10.65;;;24.80;82.00;;;;;;5035280;28;20022;-70
2023/06/20 03:51:24;;;;;;;13.30;10.57;;;24.70;82.00;;;;;;5017467;28;20025;-69
2023/06/20 03:53:49;;;;;;;16.85;10.70;;;24.70;82.10;;;;;;5035041;28;20029;-69
2023/06/20 03:56:15;;;;;;;15.20;10.75;;;24.70;82.20;;;;;;5034960;28;20026;-70
2023/06/20 03:58:40;;;;;;;14.15;10.15;;;24.70;82.20;;;;;;5016940;28;20029;-69
2023/06/20 04:01:06;;;;;;;14.10;10.73;;;24.70;82.40;;;;;;5034908;28;20018;-71
2023/06/20 04:03:32;;;;;;;12.65;10.30;;;24.70;82.50;;;;;;5034681;28;20443;-70
2023/06/20 04:06:01;;;;;;;11.90;10.10;;;24.60;82.50;;;;;;5034774;28;20120;-70
2023/06/20 04:08:27;;;;;;;14.73;10.10;;;24.70;82.60;;;;;;5034770;28;20072;-70
2023/06/20 04:10:53;;;;;;;15.10;11.13;;;24.60;82.60;;;;;;5034020;28;20034;-70
2023/06/20 04:13:19;;;;;;;16.92;10.68;;;24.60;82.80;;;;;;5033717;28;20072;-70
2023/06/20 04:15:44;;;;;;;12.20;10.20;;;24.60;82.80;;;;;;5033576;28;20049;-69
2023/06/20 04:18:10;;;;;;;13.70;9.88;;;24.60;83.00;;;;;;5033578;28;20071;-70
2023/06/20 04:20:35;;;;;;;16.50;9.73;;;24.60;83.10;;;;;;5033647;28;20029;-70
2023/06/20 04:23:01;;;;;;;13.63;9.82;;;24.60;83.30;;;;;;5033634;28;20025;-70
2023/06/20 04:25:27;;;;;;;11.90;10.20;;;24.60;83.40;;;;;;5033285;28;20037;-70
2023/06/20 04:27:55;;;;;;;11.80;8.90;;;24.60;83.50;;;;;;5033594;28;20092;-70
2023/06/20 04:30:24;;;;;;;9.63;8.35;;;24.60;83.70;;;;;;5033242;28;20371;-70
2023/06/20 04:32:53;;;;;;;11.07;8.27;;;24.60;83.90;;;;;;5033288;28;20048;-70
2023/06/20 04:35:19;;;;;;;9.52;8.35;;;24.60;83.90;;;;;;5033170;28;20018;-70
2023/06/20 04:37:48;;;;;;;11.40;8.32;;;24.60;84.10;;;;;;5030658;28;20067;-70
2023/06/20 04:40:14;;;;;;;13.20;8.43;;;24.60;84.20;;;;;;5032744;28;20128;-70
2023/06/20 04:42:39;;;;;;;108.20;15.07;;;24.60;84.30;;;;;;5024238;28;20042;-69
2023/06/20 04:45:05;;;;;;;10.88;8.27;;;24.60;84.80;;;;;;5032928;28;20110;-69
2023/06/20 04:47:32;;;;;;;8.93;8.02;;;24.60;84.70;;;;;;5033352;28;20029;-69
2023/06/20 04:50:03;;;;;;;12.15;8.07;;;24.60;84.70;;;;;;5033128;28;20025;-69
2023/06/20 04:52:31;;;;;;;10.05;7.90;;;24.60;84.90;;;;;;5030681;28;20036;-69
2023/06/20 04:55:02;;;;;;;10.18;8.45;;;24.60;85.00;;;;;;5031911;28;20025;-69
2023/06/20 04:57:32;;;;;;;9.65;8.13;;;24.60;85.10;;;;;;5032619;28;20060;-69
2023/06/20 04:59:58;;;;;;;11.48;7.75;;;24.60;85.40;;;;;;5030657;28;20084;-69
2023/06/20 05:02:24;;;;;;;11.43;7.93;;;24.50;85.70;;;;;;5032578;28;20475;-70
2023/06/20 05:04:50;;;;;;;8.73;7.70;;;24.50;85.80;;;;;;5031445;28;20033;-70
2023/06/20 05:07:16;;;;;;;8.43;7.63;;;24.50;85.70;;;;;;5032358;28;20025;-71
2023/06/20 05:09:42;;;;;;;10.32;7.78;;;24.60;85.90;;;;;;4995287;28;1075962;-71
2023/06/20 05:12:07;;;;;;;12.32;8.40;;;24.60;86.00;;;;;;5032732;28;20084;-69
2023/06/20 05:14:33;;;;;;;10.32;7.20;;;24.50;86.10;;;;;;5030066;28;20053;-70
2023/06/20 05:16:58;;;;;;;11.43;7.53;;;24.60;86.30;;;;;;5031775;28;20022;-71
2023/06/20 05:19:24;;;;;;;8.73;6.97;;;24.60;86.30;;;;;;5031087;28;20382;-70
2023/06/20 05:21:49;;;;;;;9.98;7.53;;;24.60;86.50;;;;;;5025805;28;20380;-71
2023/06/20 05:24:15;;;;;;;10.77;6.95;;;24.60;86.70;;;;;;5027693;28;20057;-70
2023/06/20 05:26:41;;;;;;;12.27;8.15;;;24.60;86.90;;;;;;5017586;28;20033;-70
2023/06/20 05:29:06;;;;;;;13.45;8.27;;;24.60;87.00;;;;;;5012020;28;20030;-70
2023/06/20 05:31:32;;;;;;;11.82;7.60;;;24.60;87.20;;;;;;5027055;28;20029;-71
2023/06/20 05:33:58;;;;;;;11.43;7.07;;;24.60;87.50;;;;;;5011338;28;20798;-69
2023/06/20 05:36:24;;;;;;;10.57;7.57;;;24.60;87.60;;;;;;5030974;28;20025;-70
2023/06/20 05:38:49;;;;;;;9.57;7.13;;;24.60;88.00;;;;;;5031021;28;20360;-71
2023/06/20 05:41:15;;;;;;;11.40;6.70;;;24.60;88.40;;;;;;5030104;28;20041;-70
2023/06/20 05:43:41;;;;;;;10.02;6.03;;;24.70;88.70;;;;;;5027000;28;20021;-70
2023/06/20 05:46:07;;;;;;;7.50;5.78;;;24.70;87.70;;;;;;5024248;28;20501;-69
2023/06/20 05:48:34;;;;;;;8.65;6.45;;;24.70;87.00;;;;;;5028382;28;20021;-67
2023/06/20 05:51:00;;;;;;;7.20;6.22;;;24.70;87.20;;;;;;5029398;28;20060;-69
2023/06/20 05:53:26;;;;;;;8.40;6.25;;;24.80;87.70;;;;;;5020471;28;20034;-70
2023/06/20 05:55:52;;;;;;;9.60;6.47;;;24.80;88.20;;;;;;5027415;28;20082;-70
2023/06/20 05:58:18;;;;;;;9.45;5.93;;;24.90;88.50;;;;;;5031175;28;20021;-67
2023/06/20 06:00:45;;;;;;;9.57;6.40;;;24.80;88.30;;;;;;5027218;28;20026;-69
2023/06/20 06:03:11;;;;;;;9.18;6.10;;;24.90;88.50;;;;;;5033306;28;20479;-70
2023/06/20 06:05:37;;;;;;;11.05;6.47;;;24.90;88.70;;;;;;5009426;28;20034;-69
2023/06/20 06:08:02;;;;;;;6.47;5.57;;;24.90;89.20;;;;;;5036053;28;20100;-69
2023/06/20 06:10:28;;;;;;;9.07;5.32;;;25.00;89.10;;;;;;5034757;28;20037;-67
2023/06/20 06:12:53;;;;;;;9.82;6.55;;;25.00;89.40;;;;;;5034148;28;20037;-68
2023/06/20 06:15:19;;;;;;;12.38;5.57;;;25.00;89.20;;;;;;5035952;28;20092;-69
2023/06/20 06:17:44;;;;;;;7.15;5.15;;;25.10;89.40;;;;;;5034137;28;20425;-70
2023/06/20 06:20:14;;;;;;;9.90;5.18;;;25.10;89.60;;;;;;5024625;28;20502;-69
2023/06/20 06:22:40;;;;;;;6.40;5.45;;;25.10;89.60;;;;;;4997724;28;20548;-70
2023/06/20 06:25:08;;;;;;;5.88;5.30;;;25.20;89.50;;;;;;5016715;28;20038;-70
2023/06/20 06:27:37;;;;;;;5.82;4.80;;;25.20;89.40;;;;;;5016314;28;20022;-70
2023/06/20 06:30:03;;;;;;;5.35;4.53;;;25.20;89.40;;;;;;5016890;28;20109;-70
2023/06/20 06:32:33;;;;;;;8.60;5.35;;;25.30;90.00;;;;;;5016711;28;20033;-70
2023/06/20 06:35:00;;;;;;;7.32;4.65;;;25.40;90.00;;;;;;5016691;28;20042;-70
2023/06/20 06:37:27;;;;;;;9.27;5.32;;;25.40;88.80;;;;;;4998845;28;20044;-70
2023/06/20 06:39:58;;;;;;;5.70;4.80;;;25.40;88.80;;;;;;5021987;28;20025;-69
2023/06/20 06:42:24;;;;;;;8.80;5.22;;;25.50;88.90;;;;;;5035948;28;20079;-69
2023/06/20 06:44:50;;;;;;;6.50;4.68;;;25.50;89.60;;;;;;5036245;28;20072;-70
2023/06/20 06:47:15;;;;;;;7.45;4.70;;;25.50;89.90;;;;;;5036366;28;20029;-70
2023/06/20 06:49:41;;;;;;;7.68;4.40;;;25.60;89.60;;;;;;5036282;28;20477;-70
2023/06/20 06:52:08;;;;;;;7.55;4.90;;;25.70;89.70;;;;;;5035747;28;20022;-70
2023/06/20 06:54:33;;;;;;;7.13;4.25;;;25.80;89.60;;;;;;5035551;28;20093;-70
2023/06/20 06:56:59;;;;;;;5.85;4.40;;;25.80;89.70;;;;;;5034954;28;20386;-70
2023/06/20 06:59:24;;;;;;;6.50;3.92;;;25.90;89.50;;;;;;5035953;28;20029;-69
2023/06/20 07:01:51;;;;;;;6.70;4.15;;;25.90;88.60;;;;;;5035714;28;20049;-70
2023/06/20 07:04:17;;;;;;;4.15;3.70;;;25.90;88.40;;;;;;5034050;28;20537;-70
2023/06/20 07:06:42;;;;;;;4.78;4.20;;;25.90;88.30;;;;;;5035913;28;20116;-70
2023/06/20 07:09:08;;;;;;;4.50;3.97;;;26.00;88.30;;;;;;5035761;28;20033;-70
2023/06/20 07:11:34;;;;;;;6.55;4.20;;;26.00;88.50;;;;;;5035411;28;20091;-70
2023/06/20 07:13:59;;;;;;;6.70;3.80;;;26.10;88.70;;;;;;5035306;28;20056;-70
2023/06/20 07:16:31;;;;;;;4.18;3.78;;;26.10;88.00;;;;;;5035756;28;20032;-70
2023/06/20 07:18:58;;;;;;;5.25;4.00;;;26.10;88.00;;;;;;5035787;28;20013;-69
2023/06/20 07:21:23;;;;;;;6.50;4.15;;;26.10;88.10;;;;;;5036040;28;20034;-70
2023/06/20 07:23:49;;;;;;;5.13;4.07;;;26.20;88.50;;;;;;5035379;28;20067;-71
2023/06/20 07:26:14;;;;;;;7.05;4.20;;;26.20;87.70;;;;;;5035539;28;20041;-71
2023/06/20 07:28:40;;;;;;;5.22;3.88;;;26.30;88.60;;;;;;5035473;28;20100;-71
2023/06/20 07:31:05;;;;;;;4.22;3.22;;;26.30;87.00;;;;;;5035642;28;20037;-70
2023/06/20 07:33:31;;;;;;;7.43;3.78;;;26.30;87.70;;;;;;5035394;28;20022;-71
2023/06/20 07:35:58;;;;;;;5.72;3.92;;;26.40;88.00;;;;;;5035411;28;20030;-71
2023/06/20 07:38:23;;;;;;;5.68;3.47;;;26.40;87.20;;;;;;5035064;28;20028;-70
2023/06/20 07:40:49;;;;;;;5.90;3.47;;;26.40;87.00;;;;;;5033241;28;20029;-70
2023/06/20 07:43:15;;;;;;;5.72;3.30;;;26.50;87.20;;;;;;5017353;28;20029;-70
2023/06/20 07:45:40;;;;;;;4.53;3.17;;;26.50;87.00;;;;;;5034931;28;20033;-70
2023/06/20 07:48:06;;;;;;;3.95;3.55;;;26.50;87.30;;;;;;5031910;28;20037;-70
2023/06/20 07:50:32;;;;;;;3.75;3.35;;;26.60;87.70;;;;;;5022195;28;20040;-69
2023/06/20 07:52:57;;;;;;;5.35;2.72;;;26.60;87.50;;;;;;5031657;28;20033;-70
2023/06/20 07:55:23;;;;;;;3.50;3.17;;;26.60;87.60;;;;;;5033587;28;20030;-70
2023/06/20 07:57:49;;;;;;;4.50;3.10;;;26.70;87.50;;;;;;5029725;28;20117;-70
2023/06/20 08:00:15;;;;;;;4.93;3.38;;;26.80;88.00;;;;;;5033226;28;20021;-70
2023/06/20 08:02:40;;;;;;;4.22;2.67;;;26.80;87.60;;;;;;5034149;28;20029;-70
2023/06/20 08:05:08;;;;;;;4.00;3.38;;;26.90;87.30;;;;;;5032230;28;20084;-70
2023/06/20 08:07:35;;;;;;;3.65;2.72;;;26.90;87.00;;;;;;5033587;28;20136;-70
2023/06/20 08:10:02;;;;;;;6.55;3.70;;;26.90;87.20;;;;;;5033780;28;20022;-70
2023/06/20 08:12:28;;;;;;;3.50;3.17;;;27.00;87.30;;;;;;5033979;28;20024;-70
2023/06/20 08:14:53;;;;;;;3.72;3.33;;;27.10;87.10;;;;;;5031304;28;20033;-70
2023/06/20 08:17:19;;;;;;;3.40;3.10;;;27.20;87.00;;;;;;5014062;28;20073;-70
2023/06/20 08:19:45;;;;;;;6.28;3.22;;;27.20;86.30;;;;;;5013998;28;20022;-70
2023/06/20 08:22:11;;;;;;;4.50;3.40;;;27.20;86.10;;;;;;5013582;28;20494;-70
2023/06/20 08:24:36;;;;;;;3.45;3.08;;;27.20;86.40;;;;;;5013184;28;20022;-70
2023/06/20 08:27:03;;;;;;;5.75;3.13;;;27.30;86.20;;;;;;5013178;28;20427;-70
2023/06/20 08:29:29;;;;;;;3.88;3.20;;;27.40;86.40;;;;;;5013471;28;20507;-70
2023/06/20 08:31:55;;;;;;;4.50;3.25;;;27.40;86.00;;;;;;5013813;28;20037;-70
2023/06/20 08:34:20;;;;;;;4.38;3.00;;;27.50;86.40;;;;;;5013357;28;20022;-70
2023/06/20 08:36:46;;;;;;;3.50;2.75;;;27.50;85.10;;;;;;5013666;28;20080;-71
2023/06/20 08:39:12;;;;;;;4.15;3.13;;;27.50;85.40;;;;;;5022105;28;20459;-71
2023/06/20 08:41:38;;;;;;;3.45;2.83;;;27.60;85.60;;;;;;5029708;28;20025;-71
2023/06/20 08:44:04;;;;;;;6.82;3.33;;;27.60;84.70;;;;;;5015989;28;20501;-70
2023/06/20 08:46:31;;;;;;;4.15;2.83;;;27.60;85.10;;;;;;5031200;28;20475;-71
2023/06/20 08:48:57;;;;;;;3.00;2.65;;;27.60;84.60;;;;;;5028185;28;20033;-70
2023/06/20 08:51:26;;;;;;;3.95;2.78;;;27.60;84.40;;;;;;5027333;28;20028;-71
2023/06/20 08:53:54;;;;;;;7.13;3.35;;;27.70;85.10;;;;;;5026674;28;20498;-71
2023/06/20 08:56:20;;;;;;;3.38;2.42;;;27.70;85.00;;;;;;5028046;28;20029;-71
2023/06/20 08:58:46;;;;;;;5.63;3.03;;;27.70;84.80;;;;;;5029276;28;20501;-72
2023/06/20 09:01:12;;;;;;;5.55;2.70;;;27.70;84.50;;;;;;5025579;28;20108;-71
2023/06/20 09:03:37;;;;;;;4.47;2.67;;;27.70;84.60;;;;;;5029923;28;20026;-71
2023/06/20 09:06:03;;;;;;;4.85;3.08;;;27.70;84.70;;;;;;5032126;28;20075;-71
2023/06/20 09:08:39;;;;;;;6.40;3.05;;;27.80;84.50;;;;;;5031207;28;20397;-71
2023/06/20 09:11:12;;;;;;;3.03;2.60;;;27.90;84.20;;;;;;5023578;28;20099;-71
2023/06/20 09:13:38;;;;;;;3.20;2.33;;;27.90;83.70;;;;;;5013633;28;20367;-71
2023/06/20 09:16:10;;;;;;;3.78;2.55;;;27.90;83.70;;;;;;5026875;28;20030;-71
2023/06/20 09:18:40;;;;;;;3.63;2.83;;;27.90;84.00;;;;;;5030044;28;20379;-71
2023/06/20 09:21:06;;;;;;;4.30;2.53;;;27.90;83.90;;;;;;5028437;28;20058;-70
2023/06/20 09:23:33;;;;;;;5.90;2.90;;;27.90;83.90;;;;;;5033205;28;20022;-71
2023/06/20 09:26:15;;;;;;;3.78;2.63;;;27.90;83.60;;;;;;5012039;28;20041;-71
2023/06/20 09:28:41;;;;;;;4.22;2.92;;;27.90;83.40;;;;;;5029641;28;20099;-71
2023/06/20 09:31:07;;;;;;;3.80;2.92;;;27.90;83.40;;;;;;5032113;28;20021;-72
2023/06/20 09:33:38;;;;;;;4.70;2.17;;;28.00;83.50;;;;;;5029192;28;20030;-72
2023/06/20 09:36:15;;;;;;;5.45;2.42;;;28.00;83.30;;;;;;5027780;28;20025;-71
2023/06/20 09:38:44;;;;;;;7.93;2.83;;;28.00;83.10;;;;;;5024086;28;20022;-71
2023/06/20 09:41:15;;;;;;;5.35;2.70;;;28.10;83.00;;;;;;5027171;28;20614;-71
2023/06/20 09:43:41;;;;;;;8.50;3.10;;;28.00;82.70;;;;;;5023529;28;20026;-71
2023/06/20 09:46:07;;;;;;;3.13;2.30;;;28.10;82.70;;;;;;5026609;28;20441;-71
2023/06/20 09:48:33;;;;;;;2.95;2.28;;;28.10;82.50;;;;;;5027950;28;20482;-71
2023/06/20 09:51:01;;;;;;;4.05;2.30;;;28.10;82.30;;;;;;5030743;28;20053;-72
2023/06/20 09:53:33;;;;;;;4.18;2.25;;;28.10;82.20;;;;;;5029209;28;20022;-72
2023/06/20 09:56:00;;;;;;;4.50;2.10;;;28.10;82.10;;;;;;5028163;28;20533;-71
2023/06/20 09:58:29;;;;;;;4.78;2.00;;;28.10;81.90;;;;;;5000455;28;20026;-72
2023/06/20 10:00:56;;;;;;;6.57;2.33;;;28.20;81.60;;;;;;5016976;28;20037;-71
2023/06/20 10:03:22;;;;;;;4.63;2.15;;;28.20;81.50;;;;;;5028011;28;20286;-71
2023/06/20 10:05:48;;;;;;;4.38;2.40;;;28.20;81.50;;;;;;5031951;28;20073;-72
2023/06/20 10:08:17;;;;;;;7.22;2.25;;;28.20;81.20;;;;;;5028825;28;20029;-71
2023/06/20 10:10:42;;;;;;;2.72;2.30;;;28.20;81.00;;;;;;5027259;28;20111;-72
2023/06/20 10:13:09;;;;;;;6.10;2.20;;;28.20;81.10;;;;;;5025402;28;20383;-72
2023/06/20 10:15:36;;;;;;;4.45;2.30;;;28.30;81.10;;;;;;5026189;28;20028;-72
2023/06/20 10:18:02;;;;;;;3.33;2.28;;;28.30;81.00;;;;;;5028298;28;20049;-71
2023/06/20 10:20:37;;;;;;;5.63;2.25;;;28.40;80.90;;;;;;5017825;28;20064;-71
2023/06/20 10:23:07;;;;;;;3.65;1.83;;;28.40;80.80;;;;;;5028753;28;20034;-70
2023/06/20 10:25:34;;;;;;;5.55;2.40;;;28.30;80.70;;;;;;5029039;28;20040;-70
2023/06/20 10:28:03;;;;;;;5.22;2.42;;;28.40;80.70;;;;;;5024466;28;20044;-72
2023/06/20 10:30:57;;;;;;;4.40;1.95;;;28.40;80.60;;;;;;5021624;28;20036;-71
2023/06/20 10:33:30;;;;;;;2.47;2.00;;;28.40;80.50;;;;;;5023784;28;20601;-70
2023/06/20 10:36:01;;;;;;;3.35;1.75;;;28.40;80.70;;;;;;5028015;28;20036;-70
2023/06/20 10:38:28;;;;;;;3.38;2.22;;;28.40;80.70;;;;;;5028653;28;20068;-70
2023/06/20 10:41:07;;;;;;;6.22;2.67;;;28.40;80.50;;;;;;5027618;28;20433;-70
2023/06/20 10:43:51;;;;;;;4.68;2.65;;;28.40;81.10;;;;;;5029358;28;20136;-70
2023/06/20 10:46:18;;;;;;;5.55;3.53;;;28.40;80.90;;;;;;5017113;28;20037;-70
2023/06/20 10:48:44;;;;;;;8.38;4.78;;;28.40;81.00;;;;;;5028633;28;20189;-70
2023/06/20 10:51:10;;;;;;;8.82;5.13;;;28.40;81.10;;;;;;5025948;28;20033;-70
2023/06/20 10:53:36;;;;;;;9.00;3.97;;;28.40;81.00;;;;;;5032810;28;20029;-70
2023/06/20 10:56:02;;;;;;;11.27;4.05;;;28.50;80.90;;;;;;5032672;28;20029;-70
2023/06/20 10:58:28;;;;;;;9.68;4.53;;;28.50;80.90;;;;;;5028533;28;20061;-69
2023/06/20 11:00:54;;;;;;;8.60;4.25;;;28.50;81.00;;;;;;5016398;28;20421;-69
2023/06/20 11:03:21;;;;;;;9.05;4.18;;;28.60;81.20;;;;;;5030142;28;20450;-72
2023/06/20 11:05:51;;;;;;;9.65;3.90;;;28.60;81.10;;;;;;5029924;28;20060;-72
2023/06/20 11:08:27;;;;;;;6.32;3.20;;;28.60;81.20;;;;;;5032326;28;20112;-70
2023/06/20 11:10:54;;;;;;;6.60;3.72;;;28.70;80.70;;;;;;5030525;28;20033;-69
2023/06/20 11:13:20;;;;;;;13.32;4.80;;;28.60;81.00;;;;;;5013033;28;20356;-70
2023/06/20 11:15:46;;;;;;;8.32;4.25;;;28.60;81.60;;;;;;5026344;28;20082;-69
2023/06/20 11:18:12;;;;;;;8.52;4.30;;;28.60;82.10;;;;;;5031467;28;20091;-70
2023/06/20 11:20:39;;;;;;;6.97;4.13;;;28.70;82.60;;;;;;5032851;28;20042;-69
2023/06/20 11:23:07;;;;;;;5.22;3.25;;;28.70;82.60;;;;;;5034417;28;20075;-69
2023/06/20 11:25:35;;;;;;;7.25;4.15;;;28.70;82.50;;;;;;5033218;28;20037;-72
2023/06/20 11:28:10;;;;;;;6.90;3.22;;;28.70;82.90;;;;;;5034426;28;20072;-69
2023/06/20 11:30:39;;;;;;;6.88;3.88;;;28.70;82.70;;;;;;5031011;28;20010;-70
2023/06/20 11:33:06;;;;;;;11.48;5.68;;;28.70;83.50;;;;;;5034794;28;20060;-69
2023/06/20 11:35:47;;;;;;;13.55;7.32;;;28.70;84.30;;;;;;5034918;28;20061;-69
2023/06/20 11:38:16;;;;;;;17.08;7.97;;;28.70;84.70;;;;;;5011828;28;20026;-70
2023/06/20 11:40:43;;;;;;;15.25;7.68;;;28.70;84.80;;;;;;5015592;28;20064;-70
2023/06/20 11:43:26;;;;;;;17.77;7.50;;;28.70;85.70;;;;;;5031976;28;20041;-69
2023/06/20 11:46:00;;;;;;;18.35;7.50;;;28.80;85.60;;;;;;5030247;28;20044;-71
2023/06/20 11:48:28;;;;;;;8.98;5.47;;;28.80;85.60;;;;;;5031000;28;20037;-69
2023/06/20 11:51:06;;;;;;;10.75;6.63;;;28.80;86.10;;;;;;5032250;28;20036;-69
2023/06/20 11:53:34;;;;;;;10.65;5.93;;;28.80;87.10;;;;;;5029560;28;20022;-70
2023/06/20 11:56:06;;;;;;;14.05;5.85;;;28.80;87.00;;;;;;5031576;28;20052;-70
2023/06/20 11:58:48;;;;;;;9.57;5.50;;;28.80;86.20;;;;;;5031869;28;20031;-70
2023/06/20 12:01:20;;;;;;;10.85;6.82;;;28.80;86.70;;;;;;5029985;28;20031;-70
2023/06/20 12:04:01;;;;;;;12.68;5.90;;;28.80;86.40;;;;;;5020912;28;20375;-70
2023/06/20 12:06:31;;;;;;;16.60;7.32;;;28.80;86.70;;;;;;5030481;28;20072;-70
2023/06/20 12:09:17;;;;;;;10.98;5.88;;;28.80;87.00;;;;;;5030323;28;20017;-69
2023/06/20 12:11:52;;;;;;;11.20;6.43;;;28.80;86.70;;;;;;5031043;28;20049;-71
2023/06/20 12:14:22;;;;;;;8.10;4.57;;;28.90;86.50;;;;;;5027350;28;20033;-70
2023/06/20 12:16:49;;;;;;;13.02;5.95;;;28.90;85.10;;;;;;5021289;28;20029;-70
2023/06/20 12:19:17;;;;;;;14.50;5.45;;;28.80;85.40;;;;;;5031483;28;20025;-70
2023/06/20 12:21:43;;;;;;;11.52;5.20;;;28.80;85.00;;;;;;5020554;28;20375;-69
2023/06/20 12:24:10;;;;;;;9.80;4.65;;;28.80;84.60;;;;;;5013694;28;20482;-71
2023/06/20 12:26:36;;;;;;;8.10;4.72;;;28.80;85.10;;;;;;5018291;28;20055;-71
2023/06/20 12:29:02;;;;;;;10.20;5.15;;;28.90;84.20;;;;;;5010226;28;20026;-71
2023/06/20 12:31:28;;;;;;;11.18;4.55;;;28.90;83.90;;;;;;5014194;28;20053;-70
2023/06/20 12:33:54;;;;;;;8.75;4.18;;;28.90;83.70;;;;;;5019580;28;20391;-70
2023/06/20 12:36:20;;;;;;;8.82;4.32;;;28.90;83.60;;;;;;5030976;28;20530;-70
2023/06/20 12:38:45;;;;;;;6.85;4.20;;;28.90;83.60;;;;;;5030616;28;20056;-70
2023/06/20 12:41:11;;;;;;;5.68;3.50;;;28.90;83.50;;;;;;5031030;28;20064;-70
2023/06/20 12:43:37;;;;;;;4.97;3.30;;;28.90;83.30;;;;;;5031733;28;20013;-72
2023/06/20 12:46:03;;;;;;;9.50;3.83;;;28.90;83.20;;;;;;5030081;28;20057;-71